sensor_id;sensor_type;location;lat;lon;timestamp;pressure;altitude;pressure_sealevel;temperature;humidity
24486;BME280;13449;49.374;8.584;2023-04-06T00:01:41;100900.13;;;1.57;100.00
24486;BME280;13449;49.374;8.584;2023-04-06T00:04:07;100894.16;;;1.31;100.00
24486;BME280;13449;49.374;8.584;2023-04-06T00:06:36;100890.81;;;1.42;100.00
24486;BME280;13449;49.374;8.584;2023-04-06T00:09:03;100891.63;;;1.42;100.00
24486;BME280;13449;49.374;8.584;2023-04-06T00:11:29;100895.78;;;1.45;100.00
24486;BME280;13449;49.374;8.584;2023-04-06T00:13:58;100893.38;;;1.54;100.00
24486;BME280;13449;49.374;8.584;2023-04-06T00:16:30;100890.19;;;1.51;100.00
24486;BME280;13449;49.374;8.584;2023-04-06T00:19:04;100886.94;;;1.60;100.00
24486;BME280;13449;49.374;8.584;2023-04-06T00:21:30;100887.81;;;1.72;100.00
24486;BME280;13449;49.374;8.584;2023-04-06T00:24:00;100884.47;;;1.46;100.00
24486;BME280;13449;49.374;8.584;2023-04-06T00:26:27;100880.09;;;1.46;100.00
24486;BME280;13449;49.374;8.584;2023-04-06T00:28:53;100883.63;;;1.58;100.00
24486;BME280;13449;49.374;8.584;2023-04-06T00:31:20;100882.69;;;1.46;100.00
24486;BME280;13449;49.374;8.584;2023-04-06T00:33:47;100884.66;;;1.43;100.00
24486;BME280;13449;49.374;8.584;2023-04-06T00:36:14;100879.00;;;1.37;100.00
24486;BME280;13449;49.374;8.584;2023-04-06T00:38:41;100885.13;;;1.24;100.00
24486;BME280;13449;49.374;8.584;2023-04-06T00:41:07;100882.13;;;1.17;100.00
24486;BME280;13449;49.374;8.584;2023-04-06T00:43:33;100877.09;;;1.27;100.00
24486;BME280;13449;49.374;8.584;2023-04-06T00:46:00;100878.69;;;1.16;100.00
24486;BME280;13449;49.374;8.584;2023-04-06T00:48:26;100873.63;;;1.15;100.00
24486;BME280;13449;49.374;8.584;2023-04-06T00:50:55;100870.38;;;1.24;100.00
24486;BME280;13449;49.374;8.584;2023-04-06T00:53:23;100864.19;;;1.14;100.00
24486;BME280;13449;49.374;8.584;2023-04-06T00:55:52;100859.63;;;1.05;100.00
24486;BME280;13449;49.374;8.584;2023-04-06T00:58:18;100856.91;;;1.06;100.00
24486;BME280;13449;49.374;8.584;2023-04-06T01:00:45;100853.47;;;1.19;100.00
24486;BME280;13449;49.374;8.584;2023-04-06T01:03:14;100846.03;;;1.01;100.00
24486;BME280;13449;49.374;8.584;2023-04-06T01:05:40;100859.00;;;1.14;100.00
24486;BME280;13449;49.374;8.584;2023-04-06T01:08:09;100854.22;;;1.08;100.00
24486;BME280;13449;49.374;8.584;2023-04-06T01:10:35;100852.31;;;1.10;100.00
24486;BME280;13449;49.374;8.584;2023-04-06T01:13:02;100849.94;;;1.20;100.00
24486;BME280;13449;49.374;8.584;2023-04-06T01:15:29;100849.84;;;1.08;100.00
24486;BME280;13449;49.374;8.584;2023-04-06T01:17:56;100855.44;;;1.02;100.00
24486;BME280;13449;49.374;8.584;2023-04-06T01:20:22;100852.44;;;1.08;100.00
24486;BME280;13449;49.374;8.584;2023-04-06T01:22:49;100849.94;;;0.56;100.00
24486;BME280;13449;49.374;8.584;2023-04-06T01:25:16;100851.78;;;0.41;100.00
24486;BME280;13449;49.374;8.584;2023-04-06T01:27:42;100854.91;;;0.46;100.00
24486;BME280;13449;49.374;8.584;2023-04-06T01:30:12;100842.97;;;0.43;100.00
24486;BME280;13449;49.374;8.584;2023-04-06T01:32:38;100841.00;;;0.47;100.00
24486;BME280;13449;49.374;8.584;2023-04-06T01:35:05;100848.78;;;0.47;100.00
24486;BME280;13449;49.374;8.584;2023-04-06T01:37:31;100845.16;;;0.37;100.00
24486;BME280;13449;49.374;8.584;2023-04-06T01:39:59;100837.38;;;0.37;100.00
24486;BME280;13449;49.374;8.584;2023-04-06T01:42:28;100836.22;;;0.41;100.00
24486;BME280;13449;49.374;8.584;2023-04-06T01:44:56;100833.22;;;0.47;100.00
24486;BME280;13449;49.374;8.584;2023-04-06T01:47:23;100826.19;;;0.49;100.00
24486;BME280;13449;49.374;8.584;2023-04-06T01:49:49;100830.97;;;0.42;100.00
24486;BME280;13449;49.374;8.584;2023-04-06T01:52:16;100833.75;;;0.39;100.00
24486;BME280;13449;49.374;8.584;2023-04-06T01:54:42;100823.78;;;0.33;100.00
24486;BME280;13449;49.374;8.584;2023-04-06T01:57:10;100828.81;;;0.22;100.00
24486;BME280;13449;49.374;8.584;2023-04-06T01:59:37;100837.00;;;0.16;100.00
24486;BME280;13449;49.374;8.584;2023-04-06T02:02:03;100836.50;;;0.23;100.00
24486;BME280;13449;49.374;8.584;2023-04-06T02:04:33;100822.94;;;0.20;100.00
24486;BME280;13449;49.374;8.584;2023-04-06T02:06:59;100830.59;;;0.21;100.00
24486;BME280;13449;49.374;8.584;2023-04-06T02:09:25;100833.34;;;0.06;100.00
24486;BME280;13449;49.374;8.584;2023-04-06T02:11:54;100835.09;;;0.05;100.00
24486;BME280;13449;49.374;8.584;2023-04-06T02:14:25;100837.19;;;0.00;100.00
24486;BME280;13449;49.374;8.584;2023-04-06T02:16:51;100832.44;;;0.07;100.00
24486;BME280;13449;49.374;8.584;2023-04-06T02:19:18;100825.78;;;0.03;100.00
24486;BME280;13449;49.374;8.584;2023-04-06T02:21:45;100826.50;;;0.05;100.00
24486;BME280;13449;49.374;8.584;2023-04-06T02:24:11;100826.06;;;-0.02;100.00
24486;BME280;13449;49.374;8.584;2023-04-06T02:26:38;100823.88;;;-0.08;100.00
24486;BME280;13449;49.374;8.584;2023-04-06T02:29:04;100823.75;;;-0.07;100.00
24486;BME280;13449;49.374;8.584;2023-04-06T02:31:32;100826.34;;;-0.07;100.00
24486;BME280;13449;49.374;8.584;2023-04-06T02:34:01;100820.34;;;-0.07;100.00
24486;BME280;13449;49.374;8.584;2023-04-06T02:36:32;100826.72;;;0.02;100.00
24486;BME280;13449;49.374;8.584;2023-04-06T02:38:59;100827.22;;;-0.06;100.00
24486;BME280;13449;49.374;8.584;2023-04-06T02:41:28;100819.81;;;-0.12;100.00
24486;BME280;13449;49.374;8.584;2023-04-06T02:43:54;100818.75;;;-0.22;100.00
24486;BME280;13449;49.374;8.584;2023-04-06T02:46:21;100822.50;;;-0.14;100.00
24486;BME280;13449;49.374;8.584;2023-04-06T02:48:48;100824.28;;;-0.14;100.00
24486;BME280;13449;49.374;8.584;2023-04-06T02:51:14;100827.66;;;0.01;100.00
24486;BME280;13449;49.374;8.584;2023-04-06T02:53:43;100814.66;;;-0.12;100.00
24486;BME280;13449;49.374;8.584;2023-04-06T02:56:10;100821.53;;;-0.26;100.00
24486;BME280;13449;49.374;8.584;2023-04-06T02:58:36;100821.34;;;-0.22;100.00
24486;BME280;13449;49.374;8.584;2023-04-06T03:01:03;100814.59;;;-0.25;100.00
24486;BME280;13449;49.374;8.584;2023-04-06T03:03:30;100811.00;;;-0.22;100.00
24486;BME280;13449;49.374;8.584;2023-04-06T03:05:56;100816.00;;;-0.34;100.00
24486;BME280;13449;49.374;8.584;2023-04-06T03:08:24;100816.13;;;-0.35;100.00
24486;BME280;13449;49.374;8.584;2023-04-06T03:10:51;100816.94;;;-0.35;100.00
24486;BME280;13449;49.374;8.584;2023-04-06T03:13:17;100821.31;;;-0.50;100.00
24486;BME280;13449;49.374;8.584;2023-04-06T03:15:44;100816.56;;;-0.43;100.00
24486;BME280;13449;49.374;8.584;2023-04-06T03:18:10;100813.59;;;-0.37;100.00
24486;BME280;13449;49.374;8.584;2023-04-06T03:20:37;100815.69;;;-0.42;100.00
24486;BME280;13449;49.374;8.584;2023-04-06T03:23:03;100816.88;;;-0.48;100.00
24486;BME280;13449;49.374;8.584;2023-04-06T03:25:30;100817.22;;;-0.39;100.00
24486;BME280;13449;49.374;8.584;2023-04-06T03:27:58;100813.16;;;-0.43;100.00
24486;BME280;13449;49.374;8.584;2023-04-06T03:30:25;100812.97;;;-0.40;100.00
24486;BME280;13449;49.374;8.584;2023-04-06T03:32:54;100824.28;;;-0.41;100.00
24486;BME280;13449;49.374;8.584;2023-04-06T03:35:21;100820.81;;;-0.28;100.00
24486;BME280;13449;49.374;8.584;2023-04-06T03:37:47;100820.59;;;-0.25;100.00
24486;BME280;13449;49.374;8.584;2023-04-06T03:40:14;100829.50;;;-0.29;100.00
24486;BME280;13449;49.374;8.584;2023-04-06T03:42:40;100829.88;;;-0.35;100.00
24486;BME280;13449;49.374;8.584;2023-04-06T03:45:10;100825.63;;;-0.36;100.00
24486;BME280;13449;49.374;8.584;2023-04-06T03:47:40;100827.94;;;-0.31;100.00
24486;BME280;13449;49.374;8.584;2023-04-06T03:50:09;100835.81;;;-0.47;100.00
24486;BME280;13449;49.374;8.584;2023-04-06T03:52:36;100826.69;;;-0.53;100.00
24486;BME280;13449;49.374;8.584;2023-04-06T03:55:02;100832.94;;;-0.42;100.00
24486;BME280;13449;49.374;8.584;2023-04-06T03:57:29;100839.25;;;-0.47;100.00
24486;BME280;13449;49.374;8.584;2023-04-06T03:59:56;100840.63;;;-0.41;100.00
24486;BME280;13449;49.374;8.584;2023-04-06T04:02:22;100843.03;;;-0.38;100.00
24486;BME280;13449;49.374;8.584;2023-04-06T04:04:48;100833.88;;;-0.16;100.00
24486;BME280;13449;49.374;8.584;2023-04-06T04:07:15;100841.19;;;-0.09;100.00
24486;BME280;13449;49.374;8.584;2023-04-06T04:09:44;100837.47;;;-0.32;100.00
24486;BME280;13449;49.374;8.584;2023-04-06T04:12:10;100839.75;;;-0.27;100.00
24486;BME280;13449;49.374;8.584;2023-04-06T04:14:37;100849.28;;;-0.28;100.00
24486;BME280;13449;49.374;8.584;2023-04-06T04:17:06;100861.66;;;-0.33;100.00
24486;BME280;13449;49.374;8.584;2023-04-06T04:19:33;100862.34;;;-0.29;100.00
24486;BME280;13449;49.374;8.584;2023-04-06T04:21:59;100858.50;;;-0.09;100.00
24486;BME280;13449;49.374;8.584;2023-04-06T04:24:26;100855.97;;;-0.11;100.00
24486;BME280;13449;49.374;8.584;2023-04-06T04:26:52;100858.38;;;-0.35;100.00
24486;BME280;13449;49.374;8.584;2023-04-06T04:29:19;100861.34;;;-0.41;100.00
24486;BME280;13449;49.374;8.584;2023-04-06T04:31:47;100860.59;;;-0.43;100.00
24486;BME280;13449;49.374;8.584;2023-04-06T04:34:14;100862.16;;;-0.40;100.00
24486;BME280;13449;49.374;8.584;2023-04-06T04:36:41;100857.47;;;-0.62;100.00
24486;BME280;13449;49.374;8.584;2023-04-06T04:39:10;100860.06;;;-0.62;100.00
24486;BME280;13449;49.374;8.584;2023-04-06T04:41:37;100860.78;;;-0.46;100.00
24486;BME280;13449;49.374;8.584;2023-04-06T04:44:06;100863.38;;;-0.46;100.00
24486;BME280;13449;49.374;8.584;2023-04-06T04:46:33;100867.00;;;-0.63;100.00
24486;BME280;13449;49.374;8.584;2023-04-06T04:49:04;100858.88;;;-0.57;100.00
24486;BME280;13449;49.374;8.584;2023-04-06T04:51:31;100862.56;;;-0.61;100.00
24486;BME280;13449;49.374;8.584;2023-04-06T04:53:58;100871.44;;;-0.51;100.00
24486;BME280;13449;49.374;8.584;2023-04-06T04:56:25;100864.00;;;-0.28;100.00
24486;BME280;13449;49.374;8.584;2023-04-06T04:58:53;100867.66;;;-0.18;100.00
24486;BME280;13449;49.374;8.584;2023-04-06T05:01:20;100867.78;;;-0.19;100.00
24486;BME280;13449;49.374;8.584;2023-04-06T05:03:47;100874.22;;;-0.12;100.00
24486;BME280;13449;49.374;8.584;2023-04-06T05:06:16;100869.56;;;-0.07;100.00
24486;BME280;13449;49.374;8.584;2023-04-06T05:08:42;100873.72;;;-0.05;100.00
24486;BME280;13449;49.374;8.584;2023-04-06T05:11:09;100870.03;;;0.12;100.00
24486;BME280;13449;49.374;8.584;2023-04-06T05:13:36;100874.13;;;0.16;100.00
24486;BME280;13449;49.374;8.584;2023-04-06T05:16:05;100874.13;;;0.16;100.00
24486;BME280;13449;49.374;8.584;2023-04-06T05:18:32;100875.38;;;0.23;100.00
24486;BME280;13449;49.374;8.584;2023-04-06T05:20:58;100881.66;;;0.19;100.00
24486;BME280;13449;49.374;8.584;2023-04-06T05:23:25;100882.22;;;0.25;100.00
24486;BME280;13449;49.374;8.584;2023-04-06T05:25:52;100885.03;;;0.34;100.00
24486;BME280;13449;49.374;8.584;2023-04-06T05:28:18;100885.47;;;0.41;100.00
24486;BME280;13449;49.374;8.584;2023-04-06T05:30:45;100875.72;;;0.44;100.00
24486;BME280;13449;49.374;8.584;2023-04-06T05:33:14;100879.38;;;0.55;100.00
24486;BME280;13449;49.374;8.584;2023-04-06T05:35:41;100884.69;;;0.53;100.00
24486;BME280;13449;49.374;8.584;2023-04-06T05:38:08;100888.28;;;0.51;100.00
24486;BME280;13449;49.374;8.584;2023-04-06T05:40:37;100885.00;;;0.61;100.00
24486;BME280;13449;49.374;8.584;2023-04-06T05:43:04;100889.25;;;0.62;100.00
24486;BME280;13449;49.374;8.584;2023-04-06T05:45:31;100891.03;;;0.75;100.00
24486;BME280;13449;49.374;8.584;2023-04-06T05:47:57;100882.63;;;0.84;100.00
24486;BME280;13449;49.374;8.584;2023-04-06T05:50:24;100879.97;;;0.98;100.00
24486;BME280;13449;49.374;8.584;2023-04-06T05:52:51;100888.56;;;0.86;100.00
24486;BME280;13449;49.374;8.584;2023-04-06T05:55:17;100877.38;;;0.98;100.00
24486;BME280;13449;49.374;8.584;2023-04-06T05:57:44;100885.84;;;1.13;100.00
24486;BME280;13449;49.374;8.584;2023-04-06T06:00:11;100887.19;;;1.19;100.00
24486;BME280;13449;49.374;8.584;2023-04-06T06:02:37;100880.63;;;1.38;100.00
24486;BME280;13449;49.374;8.584;2023-04-06T06:05:08;100884.22;;;1.61;100.00
24486;BME280;13449;49.374;8.584;2023-04-06T06:07:36;100891.31;;;1.59;100.00
24486;BME280;13449;49.374;8.584;2023-04-06T06:10:03;100889.75;;;1.94;100.00
24486;BME280;13449;49.374;8.584;2023-04-06T06:12:30;100887.47;;;2.13;100.00
24486;BME280;13449;49.374;8.584;2023-04-06T06:14:56;100884.69;;;2.27;100.00
24486;BME280;13449;49.374;8.584;2023-04-06T06:17:23;100876.13;;;2.38;100.00
24486;BME280;13449;49.374;8.584;2023-04-06T06:19:50;100884.56;;;2.53;100.00
24486;BME280;13449;49.374;8.584;2023-04-06T06:22:16;100879.63;;;2.72;100.00
24486;BME280;13449;49.374;8.584;2023-04-06T06:24:43;100878.88;;;3.06;100.00
24486;BME280;13449;49.374;8.584;2023-04-06T06:27:09;100881.47;;;3.17;100.00
24486;BME280;13449;49.374;8.584;2023-04-06T06:29:36;100884.56;;;3.56;100.00
24486;BME280;13449;49.374;8.584;2023-04-06T06:32:03;100887.13;;;3.67;100.00
24486;BME280;13449;49.374;8.584;2023-04-06T06:34:29;100879.03;;;3.92;100.00
24486;BME280;13449;49.374;8.584;2023-04-06T06:36:56;100887.94;;;4.22;100.00
24486;BME280;13449;49.374;8.584;2023-04-06T06:39:22;100881.38;;;4.60;100.00
24486;BME280;13449;49.374;8.584;2023-04-06T06:41:49;100876.03;;;4.82;100.00
24486;BME280;13449;49.374;8.584;2023-04-06T06:44:16;100886.28;;;5.26;100.00
24486;BME280;13449;49.374;8.584;2023-04-06T06:46:45;100887.00;;;5.37;100.00
24486;BME280;13449;49.374;8.584;2023-04-06T06:49:14;100884.88;;;6.12;100.00
24486;BME280;13449;49.374;8.584;2023-04-06T06:51:41;100887.34;;;6.04;100.00
24486;BME280;13449;49.374;8.584;2023-04-06T06:54:07;100883.53;;;6.37;100.00
24486;BME280;13449;49.374;8.584;2023-04-06T06:56:37;100883.63;;;6.65;100.00
24486;BME280;13449;49.374;8.584;2023-04-06T06:59:07;100883.59;;;6.84;100.00
24486;BME280;13449;49.374;8.584;2023-04-06T07:01:33;100869.03;;;7.19;90.69
24486;BME280;13449;49.374;8.584;2023-04-06T07:04:01;100873.28;;;7.20;92.87
24486;BME280;13449;49.374;8.584;2023-04-06T07:06:28;100872.88;;;7.15;94.03
24486;BME280;13449;49.374;8.584;2023-04-06T07:08:54;100865.41;;;7.57;89.06
24486;BME280;13449;49.374;8.584;2023-04-06T07:11:24;100879.47;;;7.56;79.20
24486;BME280;13449;49.374;8.584;2023-04-06T07:13:50;100873.81;;;7.79;83.90
24486;BME280;13449;49.374;8.584;2023-04-06T07:16:17;100870.50;;;7.77;82.55
24486;BME280;13449;49.374;8.584;2023-04-06T07:18:43;100875.56;;;8.06;89.59
24486;BME280;13449;49.374;8.584;2023-04-06T07:21:10;100874.44;;;8.08;82.63
24486;BME280;13449;49.374;8.584;2023-04-06T07:23:36;100876.75;;;8.11;82.76
24486;BME280;13449;49.374;8.584;2023-04-06T07:26:03;100881.00;;;7.77;81.42
24486;BME280;13449;49.374;8.584;2023-04-06T07:28:29;100880.97;;;8.04;83.51
24486;BME280;13449;49.374;8.584;2023-04-06T07:30:56;100886.13;;;8.32;86.70
24486;BME280;13449;49.374;8.584;2023-04-06T07:33:22;100883.28;;;8.61;79.86
24486;BME280;13449;49.374;8.584;2023-04-06T07:35:51;100882.53;;;8.95;78.11
24486;BME280;13449;49.374;8.584;2023-04-06T07:38:18;100876.13;;;9.23;70.34
24486;BME280;13449;49.374;8.584;2023-04-06T07:40:45;100874.03;;;9.35;71.14
24486;BME280;13449;49.374;8.584;2023-04-06T07:43:14;100876.28;;;9.56;80.86
24486;BME280;13449;49.374;8.584;2023-04-06T07:45:40;100878.78;;;9.31;65.91
24486;BME280;13449;49.374;8.584;2023-04-06T07:48:06;100872.47;;;9.58;63.60
24486;BME280;13449;49.374;8.584;2023-04-06T07:50:33;100879.63;;;9.82;74.14
24486;BME280;13449;49.374;8.584;2023-04-06T07:53:00;100871.84;;;9.56;68.92
24486;BME280;13449;49.374;8.584;2023-04-06T07:55:27;100873.59;;;9.48;67.14
24486;BME280;13449;49.374;8.584;2023-04-06T07:57:53;100881.09;;;9.34;66.69
24486;BME280;13449;49.374;8.584;2023-04-06T08:00:20;100873.06;;;9.36;62.19
24486;BME280;13449;49.374;8.584;2023-04-06T08:02:47;100877.34;;;9.88;65.27
24486;BME280;13449;49.374;8.584;2023-04-06T08:05:13;100874.41;;;9.48;66.84
24486;BME280;13449;49.374;8.584;2023-04-06T08:07:40;100880.09;;;9.78;63.74
24486;BME280;13449;49.374;8.584;2023-04-06T08:10:08;100886.44;;;10.18;63.89
24486;BME280;13449;49.374;8.584;2023-04-06T08:12:34;100879.69;;;10.23;63.17
24486;BME280;13449;49.374;8.584;2023-04-06T08:15:01;100876.66;;;9.69;59.44
24486;BME280;13449;49.374;8.584;2023-04-06T08:17:31;100881.66;;;10.13;63.02
24486;BME280;13449;49.374;8.584;2023-04-06T08:19:58;100873.66;;;10.47;62.92
24486;BME280;13449;49.374;8.584;2023-04-06T08:22:29;100875.28;;;10.24;60.28
24486;BME280;13449;49.374;8.584;2023-04-06T08:24:56;100879.41;;;10.59;66.02
24486;BME280;13449;49.374;8.584;2023-04-06T08:27:22;100881.38;;;10.65;59.34
24486;BME280;13449;49.374;8.584;2023-04-06T08:29:49;100881.22;;;10.83;59.57
24486;BME280;13449;49.374;8.584;2023-04-06T08:32:17;100875.41;;;10.88;61.80
24486;BME280;13449;49.374;8.584;2023-04-06T08:34:43;100879.59;;;10.58;55.57
24486;BME280;13449;49.374;8.584;2023-04-06T08:37:13;100880.84;;;11.03;56.51
24486;BME280;13449;49.374;8.584;2023-04-06T08:39:39;100872.28;;;10.92;58.92
24486;BME280;13449;49.374;8.584;2023-04-06T08:42:16;100871.25;;;11.10;57.76
24486;BME280;13449;49.374;8.584;2023-04-06T08:44:45;100871.34;;;11.33;57.02
24486;BME280;13449;49.374;8.584;2023-04-06T08:47:12;100872.53;;;11.22;51.42
24486;BME280;13449;49.374;8.584;2023-04-06T08:49:39;100865.72;;;11.44;51.10
24486;BME280;13449;49.374;8.584;2023-04-06T08:52:10;100870.56;;;11.95;51.95
24486;BME280;13449;49.374;8.584;2023-04-06T08:54:37;100869.16;;;11.76;48.57
24486;BME280;13449;49.374;8.584;2023-04-06T08:57:07;100861.47;;;11.27;48.18
24486;BME280;13449;49.374;8.584;2023-04-06T08:59:36;100866.53;;;11.36;51.51
24486;BME280;13449;49.374;8.584;2023-04-06T09:02:06;100861.94;;;11.69;50.53
24486;BME280;13449;49.374;8.584;2023-04-06T09:04:37;100856.78;;;11.76;49.12
24486;BME280;13449;49.374;8.584;2023-04-06T09:07:03;100853.22;;;12.00;52.57
24486;BME280;13449;49.374;8.584;2023-04-06T09:09:32;100858.66;;;11.99;49.21
24486;BME280;13449;49.374;8.584;2023-04-06T09:11:58;100863.19;;;12.13;46.95
24486;BME280;13449;49.374;8.584;2023-04-06T09:14:40;100858.59;;;12.30;47.54
24486;BME280;13449;49.374;8.584;2023-04-06T09:17:07;100863.19;;;12.51;46.62
24486;BME280;13449;49.374;8.584;2023-04-06T09:19:33;100863.41;;;12.64;49.64
24486;BME280;13449;49.374;8.584;2023-04-06T09:22:04;100858.47;;;13.14;46.41
24486;BME280;13449;49.374;8.584;2023-04-06T09:24:45;100848.78;;;13.21;45.83
24486;BME280;13449;49.374;8.584;2023-04-06T09:27:12;100850.69;;;13.12;44.14
24486;BME280;13449;49.374;8.584;2023-04-06T09:29:40;100849.88;;;13.41;44.28
24486;BME280;13449;49.374;8.584;2023-04-06T09:32:08;100847.75;;;13.51;45.53
24486;BME280;13449;49.374;8.584;2023-04-06T09:34:38;100843.66;;;13.85;43.99
24486;BME280;13449;49.374;8.584;2023-04-06T09:37:21;100845.69;;;13.47;44.29
24486;BME280;13449;49.374;8.584;2023-04-06T09:39:47;100846.25;;;13.27;41.97
24486;BME280;13449;49.374;8.584;2023-04-06T09:42:26;100842.25;;;13.68;44.10
24486;BME280;13449;49.374;8.584;2023-04-06T09:44:52;100841.38;;;14.03;40.68
24486;BME280;13449;49.374;8.584;2023-04-06T09:47:19;100834.63;;;14.22;43.80
24486;BME280;13449;49.374;8.584;2023-04-06T09:49:47;100835.03;;;14.19;42.41
24486;BME280;13449;49.374;8.584;2023-04-06T09:52:16;100835.09;;;13.83;40.58
24486;BME280;13449;49.374;8.584;2023-04-06T09:54:45;100835.28;;;14.24;39.53
24486;BME280;13449;49.374;8.584;2023-04-06T09:57:27;100827.75;;;14.78;40.88
24486;BME280;13449;49.374;8.584;2023-04-06T10:00:13;100827.28;;;14.46;39.54
24486;BME280;13449;49.374;8.584;2023-04-06T10:05:52;100822.47;;;15.19;37.09
24486;BME280;13449;49.374;8.584;2023-04-06T10:08:24;100827.31;;;15.50;39.20
24486;BME280;13449;49.374;8.584;2023-04-06T10:10:52;100830.34;;;14.99;39.70
24486;BME280;13449;49.374;8.584;2023-04-06T10:13:18;100828.84;;;15.25;39.10
24486;BME280;13449;49.374;8.584;2023-04-06T10:15:45;100825.19;;;14.56;38.61
24486;BME280;13449;49.374;8.584;2023-04-06T10:18:14;100821.75;;;14.97;37.67
24486;BME280;13449;49.374;8.584;2023-04-06T10:26:12;100821.94;;;15.43;37.54
24486;BME280;13449;49.374;8.584;2023-04-06T10:28:41;100817.53;;;14.75;37.06
24486;BME280;13449;49.374;8.584;2023-04-06T10:31:08;100816.84;;;14.59;35.98
24486;BME280;13449;49.374;8.584;2023-04-06T10:33:35;100824.34;;;15.25;37.16
24486;BME280;13449;49.374;8.584;2023-04-06T10:38:39;100826.59;;;15.28;36.58
24486;BME280;13449;49.374;8.584;2023-04-06T10:41:12;100813.38;;;14.65;35.96
24486;BME280;13449;49.374;8.584;2023-04-06T10:43:41;100819.38;;;14.74;39.94
24486;BME280;13449;49.374;8.584;2023-04-06T10:46:08;100822.31;;;14.86;36.92
24486;BME280;13449;49.374;8.584;2023-04-06T10:48:37;100814.22;;;15.01;35.35
24486;BME280;13449;49.374;8.584;2023-04-06T10:51:29;100808.22;;;15.33;38.10
24486;BME280;13449;49.374;8.584;2023-04-06T10:54:15;100810.22;;;15.79;37.39
24486;BME280;13449;49.374;8.584;2023-04-06T10:57:00;100806.56;;;15.26;36.08
24486;BME280;13449;49.374;8.584;2023-04-06T10:59:46;100799.44;;;15.33;37.52
24486;BME280;13449;49.374;8.584;2023-04-06T11:02:31;100803.09;;;15.25;36.06
24486;BME280;13449;49.374;8.584;2023-04-06T11:05:16;100802.16;;;14.98;36.06
24486;BME280;13449;49.374;8.584;2023-04-06T11:08:01;100793.81;;;15.08;36.48
24486;BME280;13449;49.374;8.584;2023-04-06T11:10:49;100804.31;;;15.23;38.04
24486;BME280;13449;49.374;8.584;2023-04-06T11:13:39;100795.53;;;15.22;35.88
24486;BME280;13449;49.374;8.584;2023-04-06T11:16:30;100793.31;;;15.32;35.59
24486;BME280;13449;49.374;8.584;2023-04-06T11:19:16;100786.91;;;14.72;36.28
24486;BME280;13449;49.374;8.584;2023-04-06T11:22:07;100784.72;;;14.76;34.96
24486;BME280;13449;49.374;8.584;2023-04-06T11:24:52;100789.47;;;14.93;36.42
24486;BME280;13449;49.374;8.584;2023-04-06T11:27:38;100777.22;;;14.86;33.07
24486;BME280;13449;49.374;8.584;2023-04-06T11:30:23;100768.84;;;15.43;37.00
24486;BME280;13449;49.374;8.584;2023-04-06T11:33:08;100768.09;;;14.95;34.41
24486;BME280;13449;49.374;8.584;2023-04-06T11:35:57;100768.75;;;15.17;34.24
24486;BME280;13449;49.374;8.584;2023-04-06T11:38:42;100768.66;;;14.90;32.98
24486;BME280;13449;49.374;8.584;2023-04-06T11:41:27;100766.19;;;15.43;35.79
24486;BME280;13449;49.374;8.584;2023-04-06T11:44:15;100767.72;;;15.73;33.07
24486;BME280;13449;49.374;8.584;2023-04-06T11:47:06;100756.13;;;15.19;33.03
24486;BME280;13449;49.374;8.584;2023-04-06T11:49:51;100757.44;;;15.63;36.72
24486;BME280;13449;49.374;8.584;2023-04-06T11:52:27;100762.44;;;16.26;32.67
24486;BME280;13449;49.374;8.584;2023-04-06T11:54:54;100745.78;;;16.64;32.68
24486;BME280;13449;49.374;8.584;2023-04-06T11:57:25;100743.50;;;16.87;31.17
24486;BME280;13449;49.374;8.584;2023-04-06T11:59:52;100737.84;;;16.44;31.66
24486;BME280;13449;49.374;8.584;2023-04-06T12:02:19;100737.28;;;16.42;30.99
24486;BME280;13449;49.374;8.584;2023-04-06T12:04:48;100738.94;;;15.96;32.48
24486;BME280;13449;49.374;8.584;2023-04-06T12:07:15;100744.03;;;16.18;32.46
24486;BME280;13449;49.374;8.584;2023-04-06T12:09:42;100739.09;;;16.28;32.95
24486;BME280;13449;49.374;8.584;2023-04-06T12:12:09;100741.09;;;16.59;35.08
24486;BME280;13449;49.374;8.584;2023-04-06T12:14:35;100737.44;;;16.47;33.53
24486;BME280;13449;49.374;8.584;2023-04-06T12:17:04;100729.50;;;17.05;33.34
24486;BME280;13449;49.374;8.584;2023-04-06T12:19:31;100726.44;;;17.46;33.07
24486;BME280;13449;49.374;8.584;2023-04-06T12:21:58;100722.47;;;17.24;32.38
24486;BME280;13449;49.374;8.584;2023-04-06T12:24:24;100720.63;;;16.59;30.36
24486;BME280;13449;49.374;8.584;2023-04-06T12:26:52;100717.66;;;17.01;31.88
24486;BME280;13449;49.374;8.584;2023-04-06T12:29:34;100718.78;;;17.57;32.90
24486;BME280;13449;49.374;8.584;2023-04-06T12:32:01;100723.47;;;17.29;32.51
24486;BME280;13449;49.374;8.584;2023-04-06T12:34:28;100713.66;;;16.72;33.13
24486;BME280;13449;49.374;8.584;2023-04-06T12:36:54;100708.19;;;16.47;29.90
24486;BME280;13449;49.374;8.584;2023-04-06T12:39:22;100708.59;;;16.50;32.33
24486;BME280;13449;49.374;8.584;2023-04-06T12:41:48;100720.94;;;15.72;31.93
24486;BME280;13449;49.374;8.584;2023-04-06T12:44:18;100719.44;;;15.42;31.79
24486;BME280;13449;49.374;8.584;2023-04-06T12:46:44;100716.66;;;15.71;32.42
24486;BME280;13449;49.374;8.584;2023-04-06T12:49:14;100712.78;;;15.86;30.86
24486;BME280;13449;49.374;8.584;2023-04-06T12:51:42;100708.44;;;15.65;31.77
24486;BME280;13449;49.374;8.584;2023-04-06T12:54:09;100697.69;;;16.72;33.82
24486;BME280;13449;49.374;8.584;2023-04-06T12:56:37;100704.97;;;16.96;34.79
24486;BME280;13449;49.374;8.584;2023-04-06T12:59:03;100703.03;;;16.78;31.74
24486;BME280;13449;49.374;8.584;2023-04-06T13:01:30;100702.38;;;16.83;32.05
24486;BME280;13449;49.374;8.584;2023-04-06T13:03:57;100700.59;;;16.57;31.66
24486;BME280;13449;49.374;8.584;2023-04-06T13:06:25;100700.56;;;16.84;30.52
24486;BME280;13449;49.374;8.584;2023-04-06T13:08:55;100686.25;;;16.71;32.58